sensor_id;sensor_type;location;lat;lon;timestamp;P1;durP1;ratioP1;P2;durP2;ratioP2
77417;SDS011;66490;51.484;0.026;2023-07-16T00:01:34;9.98;;;1.58;;
77417;SDS011;66490;51.484;0.026;2023-07-16T00:04:18;8.27;;;1.67;;
77417;SDS011;66490;51.484;0.026;2023-07-16T00:07:02;7.18;;;1.20;;
77417;SDS011;66490;51.484;0.026;2023-07-16T00:09:46;10.13;;;1.50;;
77417;SDS011;66490;51.484;0.026;2023-07-16T00:12:30;12.02;;;1.27;;
77417;SDS011;66490;51.484;0.026;2023-07-16T00:15:14;11.73;;;2.03;;
77417;SDS011;66490;51.484;0.026;2023-07-16T00:17:58;10.27;;;1.35;;
77417;SDS011;66490;51.484;0.026;2023-07-16T00:20:42;10.82;;;1.75;;
77417;SDS011;66490;51.484;0.026;2023-07-16T00:23:26;10.93;;;1.93;;
77417;SDS011;66490;51.484;0.026;2023-07-16T00:26:12;10.88;;;1.63;;
77417;SDS011;66490;51.484;0.026;2023-07-16T00:28:56;10.52;;;2.20;;
77417;SDS011;66490;51.484;0.026;2023-07-16T00:31:40;10.30;;;1.90;;
77417;SDS011;66490;51.484;0.026;2023-07-16T00:34:24;8.20;;;1.90;;
77417;SDS011;66490;51.484;0.026;2023-07-16T00:37:08;9.63;;;1.83;;
77417;SDS011;66490;51.484;0.026;2023-07-16T00:39:52;8.77;;;1.70;;
77417;SDS011;66490;51.484;0.026;2023-07-16T00:42:36;10.82;;;1.70;;
77417;SDS011;66490;51.484;0.026;2023-07-16T00:45:21;10.18;;;2.03;;
77417;SDS011;66490;51.484;0.026;2023-07-16T00:48:05;14.05;;;2.00;;
77417;SDS011;66490;51.484;0.026;2023-07-16T00:50:50;9.63;;;1.80;;
77417;SDS011;66490;51.484;0.026;2023-07-16T00:53:34;10.25;;;1.70;;
77417;SDS011;66490;51.484;0.026;2023-07-16T00:56:18;12.57;;;2.53;;
77417;SDS011;66490;51.484;0.026;2023-07-16T00:59:03;15.10;;;2.00;;
77417;SDS011;66490;51.484;0.026;2023-07-16T01:01:47;18.70;;;2.05;;
77417;SDS011;66490;51.484;0.026;2023-07-16T01:04:31;10.80;;;2.10;;
77417;SDS011;66490;51.484;0.026;2023-07-16T01:07:16;7.85;;;1.58;;
77417;SDS011;66490;51.484;0.026;2023-07-16T01:10:02;13.65;;;2.85;;
77417;SDS011;66490;51.484;0.026;2023-07-16T01:12:46;15.00;;;2.65;;
77417;SDS011;66490;51.484;0.026;2023-07-16T01:15:30;16.67;;;2.38;;
77417;SDS011;66490;51.484;0.026;2023-07-16T01:18:14;12.80;;;1.93;;
77417;SDS011;66490;51.484;0.026;2023-07-16T01:20:58;13.00;;;2.70;;
77417;SDS011;66490;51.484;0.026;2023-07-16T01:32:16;12.40;;;2.20;;
77417;SDS011;66490;51.484;0.026;2023-07-16T01:35:00;12.70;;;2.30;;
77417;SDS011;66490;51.484;0.026;2023-07-16T01:37:45;12.75;;;3.05;;
77417;SDS011;66490;51.484;0.026;2023-07-16T01:40:30;12.55;;;3.20;;
77417;SDS011;66490;51.484;0.026;2023-07-16T01:43:14;9.27;;;2.38;;
77417;SDS011;66490;51.484;0.026;2023-07-16T01:45:58;13.73;;;2.33;;
77417;SDS011;66490;51.484;0.026;2023-07-16T01:48:42;12.45;;;1.67;;
77417;SDS011;66490;51.484;0.026;2023-07-16T01:51:26;10.07;;;2.00;;
77417;SDS011;66490;51.484;0.026;2023-07-16T01:54:10;10.55;;;1.83;;
77417;SDS011;66490;51.484;0.026;2023-07-16T01:56:54;11.55;;;2.63;;
77417;SDS011;66490;51.484;0.026;2023-07-16T01:59:38;11.67;;;2.30;;
77417;SDS011;66490;51.484;0.026;2023-07-16T02:02:22;12.40;;;2.40;;
77417;SDS011;66490;51.484;0.026;2023-07-16T02:05:06;14.25;;;2.70;;
77417;SDS011;66490;51.484;0.026;2023-07-16T02:07:50;11.68;;;2.30;;
77417;SDS011;66490;51.484;0.026;2023-07-16T02:10:34;13.25;;;2.55;;
77417;SDS011;66490;51.484;0.026;2023-07-16T02:13:18;11.83;;;2.30;;
77417;SDS011;66490;51.484;0.026;2023-07-16T02:16:02;12.02;;;1.73;;
77417;SDS011;66490;51.484;0.026;2023-07-16T02:18:46;11.70;;;1.73;;
77417;SDS011;66490;51.484;0.026;2023-07-16T02:21:30;15.32;;;2.60;;
77417;SDS011;66490;51.484;0.026;2023-07-16T02:24:14;13.52;;;2.95;;
77417;SDS011;66490;51.484;0.026;2023-07-16T02:26:58;14.50;;;2.17;;
77417;SDS011;66490;51.484;0.026;2023-07-16T02:29:42;9.80;;;2.10;;
77417;SDS011;66490;51.484;0.026;2023-07-16T02:32:26;14.48;;;2.70;;
77417;SDS011;66490;51.484;0.026;2023-07-16T02:35:10;13.18;;;2.42;;
77417;SDS011;66490;51.484;0.026;2023-07-16T02:37:55;12.32;;;2.47;;
77417;SDS011;66490;51.484;0.026;2023-07-16T02:40:43;11.97;;;2.37;;
77417;SDS011;66490;51.484;0.026;2023-07-16T02:43:28;15.57;;;2.63;;
77417;SDS011;66490;51.484;0.026;2023-07-16T02:46:12;17.67;;;3.40;;
77417;SDS011;66490;51.484;0.026;2023-07-16T02:48:56;16.05;;;3.05;;
77417;SDS011;66490;51.484;0.026;2023-07-16T02:51:40;12.70;;;2.72;;
77417;SDS011;66490;51.484;0.026;2023-07-16T02:54:24;11.63;;;3.40;;
77417;SDS011;66490;51.484;0.026;2023-07-16T02:57:11;14.90;;;3.17;;
77417;SDS011;66490;51.484;0.026;2023-07-16T02:59:55;12.80;;;2.28;;
77417;SDS011;66490;51.484;0.026;2023-07-16T03:02:39;14.60;;;2.40;;
77417;SDS011;66490;51.484;0.026;2023-07-16T03:05:24;15.15;;;2.70;;
77417;SDS011;66490;51.484;0.026;2023-07-16T03:08:09;13.80;;;2.37;;
77417;SDS011;66490;51.484;0.026;2023-07-16T03:10:53;15.10;;;2.28;;
77417;SDS011;66490;51.484;0.026;2023-07-16T03:13:37;12.65;;;2.38;;
77417;SDS011;66490;51.484;0.026;2023-07-16T03:16:21;12.93;;;2.42;;
77417;SDS011;66490;51.484;0.026;2023-07-16T03:19:06;15.52;;;3.00;;
77417;SDS011;66490;51.484;0.026;2023-07-16T03:21:50;16.47;;;3.20;;
77417;SDS011;66490;51.484;0.026;2023-07-16T03:24:34;11.02;;;1.90;;
77417;SDS011;66490;51.484;0.026;2023-07-16T03:27:18;13.35;;;2.50;;
77417;SDS011;66490;51.484;0.026;2023-07-16T03:30:03;10.73;;;2.28;;
77417;SDS011;66490;51.484;0.026;2023-07-16T03:32:47;15.07;;;2.67;;
77417;SDS011;66490;51.484;0.026;2023-07-16T03:35:31;21.87;;;3.30;;
77417;SDS011;66490;51.484;0.026;2023-07-16T03:38:15;13.85;;;2.50;;
77417;SDS011;66490;51.484;0.026;2023-07-16T03:40:59;12.05;;;2.67;;
77417;SDS011;66490;51.484;0.026;2023-07-16T03:43:43;15.55;;;2.95;;
77417;SDS011;66490;51.484;0.026;2023-07-16T03:46:28;12.52;;;2.50;;
77417;SDS011;66490;51.484;0.026;2023-07-16T03:49:12;14.07;;;2.27;;
77417;SDS011;66490;51.484;0.026;2023-07-16T03:51:56;14.43;;;2.00;;
77417;SDS011;66490;51.484;0.026;2023-07-16T03:54:41;12.48;;;2.33;;
77417;SDS011;66490;51.484;0.026;2023-07-16T03:57:27;18.08;;;2.70;;
77417;SDS011;66490;51.484;0.026;2023-07-16T04:00:11;12.90;;;2.30;;
77417;SDS011;66490;51.484;0.026;2023-07-16T04:02:55;14.77;;;2.73;;
77417;SDS011;66490;51.484;0.026;2023-07-16T04:05:39;11.63;;;2.05;;
77417;SDS011;66490;51.484;0.026;2023-07-16T04:08:23;14.73;;;2.60;;
77417;SDS011;66490;51.484;0.026;2023-07-16T04:11:07;17.75;;;3.28;;
77417;SDS011;66490;51.484;0.026;2023-07-16T04:13:52;17.98;;;3.15;;
77417;SDS011;66490;51.484;0.026;2023-07-16T04:16:36;15.13;;;2.20;;
77417;SDS011;66490;51.484;0.026;2023-07-16T04:19:20;15.20;;;2.28;;
77417;SDS011;66490;51.484;0.026;2023-07-16T04:22:04;13.73;;;2.35;;
77417;SDS011;66490;51.484;0.026;2023-07-16T04:24:48;18.40;;;2.25;;
77417;SDS011;66490;51.484;0.026;2023-07-16T04:27:33;12.95;;;2.42;;
77417;SDS011;66490;51.484;0.026;2023-07-16T04:30:17;10.57;;;2.40;;
77417;SDS011;66490;51.484;0.026;2023-07-16T04:33:01;13.60;;;1.85;;
77417;SDS011;66490;51.484;0.026;2023-07-16T04:35:45;13.82;;;2.75;;
77417;SDS011;66490;51.484;0.026;2023-07-16T04:38:29;14.23;;;2.38;;
77417;SDS011;66490;51.484;0.026;2023-07-16T04:41:13;14.00;;;2.53;;
77417;SDS011;66490;51.484;0.026;2023-07-16T04:43:57;16.60;;;3.13;;
77417;SDS011;66490;51.484;0.026;2023-07-16T04:46:41;17.30;;;2.25;;
77417;SDS011;66490;51.484;0.026;2023-07-16T04:49:25;16.52;;;2.38;;
77417;SDS011;66490;51.484;0.026;2023-07-16T04:52:09;16.10;;;2.30;;
77417;SDS011;66490;51.484;0.026;2023-07-16T04:54:53;16.05;;;3.88;;
77417;SDS011;66490;51.484;0.026;2023-07-16T04:57:37;14.83;;;2.10;;
77417;SDS011;66490;51.484;0.026;2023-07-16T05:00:22;15.35;;;2.47;;
77417;SDS011;66490;51.484;0.026;2023-07-16T05:03:06;12.88;;;2.55;;
77417;SDS011;66490;51.484;0.026;2023-07-16T05:05:50;14.13;;;2.55;;
77417;SDS011;66490;51.484;0.026;2023-07-16T05:08:34;14.98;;;3.05;;
77417;SDS011;66490;51.484;0.026;2023-07-16T05:11:19;13.33;;;2.10;;
77417;SDS011;66490;51.484;0.026;2023-07-16T05:14:03;15.43;;;2.80;;
77417;SDS011;66490;51.484;0.026;2023-07-16T05:16:50;13.98;;;2.40;;
77417;SDS011;66490;51.484;0.026;2023-07-16T05:19:34;20.90;;;3.70;;
77417;SDS011;66490;51.484;0.026;2023-07-16T05:22:18;19.83;;;3.10;;
77417;SDS011;66490;51.484;0.026;2023-07-16T05:25:02;15.73;;;2.47;;
77417;SDS011;66490;51.484;0.026;2023-07-16T05:27:46;14.55;;;2.58;;
77417;SDS011;66490;51.484;0.026;2023-07-16T05:30:30;16.55;;;2.28;;
77417;SDS011;66490;51.484;0.026;2023-07-16T05:33:17;15.95;;;3.05;;
77417;SDS011;66490;51.484;0.026;2023-07-16T05:36:02;13.73;;;1.83;;
77417;SDS011;66490;51.484;0.026;2023-07-16T05:38:45;11.90;;;2.43;;
77417;SDS011;66490;51.484;0.026;2023-07-16T05:41:30;15.77;;;2.15;;
77417;SDS011;66490;51.484;0.026;2023-07-16T05:44:14;14.88;;;2.38;;
77417;SDS011;66490;51.484;0.026;2023-07-16T05:46:58;12.05;;;1.85;;
77417;SDS011;66490;51.484;0.026;2023-07-16T05:49:42;11.40;;;2.20;;
77417;SDS011;66490;51.484;0.026;2023-07-16T05:52:26;13.43;;;2.37;;
77417;SDS011;66490;51.484;0.026;2023-07-16T05:55:10;10.32;;;1.45;;
77417;SDS011;66490;51.484;0.026;2023-07-16T05:57:54;12.45;;;2.17;;
77417;SDS011;66490;51.484;0.026;2023-07-16T06:00:39;13.35;;;2.72;;
77417;SDS011;66490;51.484;0.026;2023-07-16T06:03:24;13.70;;;3.00;;
77417;SDS011;66490;51.484;0.026;2023-07-16T06:06:08;9.70;;;1.93;;
77417;SDS011;66490;51.484;0.026;2023-07-16T06:08:52;16.42;;;1.75;;
77417;SDS011;66490;51.484;0.026;2023-07-16T06:11:36;9.93;;;1.88;;
77417;SDS011;66490;51.484;0.026;2023-07-16T06:14:20;17.50;;;2.28;;
77417;SDS011;66490;51.484;0.026;2023-07-16T06:17:04;14.10;;;2.35;;
77417;SDS011;66490;51.484;0.026;2023-07-16T06:19:48;9.77;;;1.67;;
77417;SDS011;66490;51.484;0.026;2023-07-16T06:22:34;16.00;;;2.38;;
77417;SDS011;66490;51.484;0.026;2023-07-16T06:25:18;13.75;;;2.72;;
77417;SDS011;66490;51.484;0.026;2023-07-16T06:28:03;10.48;;;2.28;;
77417;SDS011;66490;51.484;0.026;2023-07-16T06:30:48;14.55;;;2.22;;
77417;SDS011;66490;51.484;0.026;2023-07-16T06:33:31;14.10;;;2.00;;
77417;SDS011;66490;51.484;0.026;2023-07-16T06:36:15;15.13;;;1.70;;
77417;SDS011;66490;51.484;0.026;2023-07-16T06:38:59;13.65;;;1.95;;
77417;SDS011;66490;51.484;0.026;2023-07-16T06:41:44;14.02;;;2.05;;
77417;SDS011;66490;51.484;0.026;2023-07-16T06:44:27;7.28;;;1.88;;
77417;SDS011;66490;51.484;0.026;2023-07-16T06:47:11;11.60;;;1.40;;
77417;SDS011;66490;51.484;0.026;2023-07-16T06:49:55;9.13;;;1.55;;
77417;SDS011;66490;51.484;0.026;2023-07-16T06:52:39;10.20;;;1.65;;
77417;SDS011;66490;51.484;0.026;2023-07-16T06:55:23;9.13;;;1.73;;
77417;SDS011;66490;51.484;0.026;2023-07-16T06:58:10;13.13;;;1.73;;
77417;SDS011;66490;51.484;0.026;2023-07-16T07:00:56;9.87;;;1.40;;
77417;SDS011;66490;51.484;0.026;2023-07-16T07:03:41;11.65;;;1.35;;
77417;SDS011;66490;51.484;0.026;2023-07-16T07:06:25;14.07;;;1.70;;
77417;SDS011;66490;51.484;0.026;2023-07-16T07:09:09;14.13;;;2.00;;
77417;SDS011;66490;51.484;0.026;2023-07-16T07:11:53;11.13;;;1.85;;
77417;SDS011;66490;51.484;0.026;2023-07-16T07:14:37;9.87;;;1.70;;
77417;SDS011;66490;51.484;0.026;2023-07-16T07:17:21;12.18;;;1.60;;
77417;SDS011;66490;51.484;0.026;2023-07-16T07:20:05;12.02;;;1.80;;
77417;SDS011;66490;51.484;0.026;2023-07-16T07:22:50;13.23;;;1.35;;
77417;SDS011;66490;51.484;0.026;2023-07-16T07:25:34;10.73;;;2.05;;
77417;SDS011;66490;51.484;0.026;2023-07-16T07:28:19;11.60;;;2.40;;
77417;SDS011;66490;51.484;0.026;2023-07-16T07:31:03;10.93;;;1.42;;
77417;SDS011;66490;51.484;0.026;2023-07-16T07:33:47;6.50;;;1.42;;
77417;SDS011;66490;51.484;0.026;2023-07-16T07:36:31;9.13;;;1.63;;
77417;SDS011;66490;51.484;0.026;2023-07-16T07:39:15;10.75;;;2.03;;
77417;SDS011;66490;51.484;0.026;2023-07-16T07:42:00;9.40;;;1.40;;
77417;SDS011;66490;51.484;0.026;2023-07-16T07:44:44;10.75;;;1.60;;
77417;SDS011;66490;51.484;0.026;2023-07-16T07:47:28;12.65;;;2.30;;
77417;SDS011;66490;51.484;0.026;2023-07-16T07:50:12;9.18;;;1.70;;
77417;SDS011;66490;51.484;0.026;2023-07-16T07:52:56;10.05;;;1.60;;
77417;SDS011;66490;51.484;0.026;2023-07-16T07:55:40;12.77;;;1.40;;
77417;SDS011;66490;51.484;0.026;2023-07-16T07:58:24;12.63;;;2.03;;
77417;SDS011;66490;51.484;0.026;2023-07-16T08:01:08;11.07;;;1.88;;
77417;SDS011;66490;51.484;0.026;2023-07-16T08:03:55;10.90;;;1.88;;
77417;SDS011;66490;51.484;0.026;2023-07-16T08:06:39;9.68;;;1.60;;
77417;SDS011;66490;51.484;0.026;2023-07-16T08:09:25;11.00;;;1.83;;
77417;SDS011;66490;51.484;0.026;2023-07-16T08:12:09;10.90;;;1.55;;
77417;SDS011;66490;51.484;0.026;2023-07-16T08:14:53;11.02;;;1.80;;
77417;SDS011;66490;51.484;0.026;2023-07-16T08:17:36;9.68;;;1.88;;
77417;SDS011;66490;51.484;0.026;2023-07-16T08:20:20;10.68;;;2.15;;
77417;SDS011;66490;51.484;0.026;2023-07-16T08:23:04;8.83;;;2.03;;
77417;SDS011;66490;51.484;0.026;2023-07-16T08:25:49;10.80;;;2.00;;
77417;SDS011;66490;51.484;0.026;2023-07-16T08:28:34;10.10;;;1.60;;
77417;SDS011;66490;51.484;0.026;2023-07-16T08:31:18;11.82;;;1.60;;
77417;SDS011;66490;51.484;0.026;2023-07-16T08:34:02;10.80;;;1.73;;
77417;SDS011;66490;51.484;0.026;2023-07-16T08:36:46;12.87;;;1.83;;
77417;SDS011;66490;51.484;0.026;2023-07-16T08:39:30;11.05;;;1.60;;
77417;SDS011;66490;51.484;0.026;2023-07-16T08:42:15;10.13;;;1.88;;
77417;SDS011;66490;51.484;0.026;2023-07-16T08:44:59;8.52;;;1.40;;
77417;SDS011;66490;51.484;0.026;2023-07-16T08:47:44;8.38;;;1.35;;
77417;SDS011;66490;51.484;0.026;2023-07-16T08:50:27;10.53;;;1.57;;
77417;SDS011;66490;51.484;0.026;2023-07-16T08:53:12;7.18;;;1.45;;
77417;SDS011;66490;51.484;0.026;2023-07-16T08:55:57;11.02;;;1.90;;
77417;SDS011;66490;51.484;0.026;2023-07-16T08:58:41;8.68;;;1.35;;
77417;SDS011;66490;51.484;0.026;2023-07-16T09:01:26;8.60;;;1.40;;
77417;SDS011;66490;51.484;0.026;2023-07-16T09:04:11;9.10;;;1.83;;
77417;SDS011;66490;51.484;0.026;2023-07-16T09:06:55;8.80;;;1.63;;
77417;SDS011;66490;51.484;0.026;2023-07-16T09:09:39;7.18;;;1.42;;
77417;SDS011;66490;51.484;0.026;2023-07-16T09:12:23;9.32;;;1.27;;
77417;SDS011;66490;51.484;0.026;2023-07-16T09:15:07;8.73;;;1.23;;
77417;SDS011;66490;51.484;0.026;2023-07-16T09:17:53;14.23;;;1.10;;
77417;SDS011;66490;51.484;0.026;2023-07-16T09:20:37;8.57;;;1.85;;
77417;SDS011;66490;51.484;0.026;2023-07-16T09:23:26;7.40;;;1.33;;
77417;SDS011;66490;51.484;0.026;2023-07-16T09:26:11;7.10;;;1.65;;
77417;SDS011;66490;51.484;0.026;2023-07-16T09:28:57;8.85;;;1.80;;
77417;SDS011;66490;51.484;0.026;2023-07-16T09:34:58;6.75;;;1.05;;
77417;SDS011;66490;51.484;0.026;2023-07-16T09:37:42;5.82;;;1.45;;
77417;SDS011;66490;51.484;0.026;2023-07-16T09:40:26;5.55;;;1.13;;
77417;SDS011;66490;51.484;0.026;2023-07-16T09:43:12;6.43;;;1.05;;
77417;SDS011;66490;51.484;0.026;2023-07-16T09:45:56;6.03;;;1.27;;
77417;SDS011;66490;51.484;0.026;2023-07-16T09:48:41;9.02;;;1.58;;
77417;SDS011;66490;51.484;0.026;2023-07-16T09:51:24;6.10;;;0.80;;
77417;SDS011;66490;51.484;0.026;2023-07-16T09:54:12;4.72;;;0.98;;
77417;SDS011;66490;51.484;0.026;2023-07-16T09:56:56;6.40;;;1.42;;
77417;SDS011;66490;51.484;0.026;2023-07-16T09:59:43;4.27;;;0.87;;
77417;SDS011;66490;51.484;0.026;2023-07-16T10:02:33;6.22;;;1.17;;
77417;SDS011;66490;51.484;0.026;2023-07-16T10:05:24;6.05;;;1.13;;
77417;SDS011;66490;51.484;0.026;2023-07-16T10:08:18;6.93;;;1.50;;
77417;SDS011;66490;51.484;0.026;2023-07-16T10:11:02;4.68;;;1.00;;
77417;SDS011;66490;51.484;0.026;2023-07-16T10:13:49;7.93;;;1.17;;
77417;SDS011;66490;51.484;0.026;2023-07-16T10:16:37;7.72;;;1.10;;
77417;SDS011;66490;51.484;0.026;2023-07-16T10:19:23;6.75;;;1.30;;
77417;SDS011;66490;51.484;0.026;2023-07-16T10:22:06;4.78;;;1.25;;
77417;SDS011;66490;51.484;0.026;2023-07-16T10:24:51;6.47;;;1.23;;
77417;SDS011;66490;51.484;0.026;2023-07-16T10:27:36;4.57;;;0.77;;
77417;SDS011;66490;51.484;0.026;2023-07-16T10:30:20;5.97;;;1.02;;
77417;SDS011;66490;51.484;0.026;2023-07-16T10:33:11;5.15;;;1.02;;
77417;SDS011;66490;51.484;0.026;2023-07-16T10:35:57;7.10;;;1.23;;
77417;SDS011;66490;51.484;0.026;2023-07-16T10:38:42;5.63;;;1.17;;
77417;SDS011;66490;51.484;0.026;2023-07-16T10:41:26;4.30;;;0.77;;
77417;SDS011;66490;51.484;0.026;2023-07-16T10:44:14;8.27;;;1.27;;
77417;SDS011;66490;51.484;0.026;2023-07-16T10:46:58;3.88;;;1.10;;
77417;SDS011;66490;51.484;0.026;2023-07-16T10:49:42;5.40;;;0.90;;
77417;SDS011;66490;51.484;0.026;2023-07-16T10:52:26;6.65;;;1.20;;
77417;SDS011;66490;51.484;0.026;2023-07-16T10:55:10;6.00;;;1.13;;
77417;SDS011;66490;51.484;0.026;2023-07-16T10:57:54;7.90;;;1.58;;
77417;SDS011;66490;51.484;0.026;2023-07-16T11:00:39;8.75;;;1.27;;
77417;SDS011;66490;51.484;0.026;2023-07-16T11:03:23;8.43;;;1.17;;
77417;SDS011;66490;51.484;0.026;2023-07-16T11:06:08;5.40;;;0.80;;
77417;SDS011;66490;51.484;0.026;2023-07-16T11:08:53;7.37;;;1.17;;
77417;SDS011;66490;51.484;0.026;2023-07-16T11:11:46;5.55;;;1.05;;
77417;SDS011;66490;51.484;0.026;2023-07-16T11:14:34;6.93;;;1.00;;
77417;SDS011;66490;51.484;0.026;2023-07-16T11:17:39;6.45;;;1.38;;
77417;SDS011;66490;51.484;0.026;2023-07-16T11:23:26;14.37;;;5.10;;
77417;SDS011;66490;51.484;0.026;2023-07-16T11:26:10;12.35;;;2.70;;
77417;SDS011;66490;51.484;0.026;2023-07-16T11:28:54;7.95;;;1.98;;
77417;SDS011;66490;51.484;0.026;2023-07-16T11:31:38;5.68;;;1.30;;
77417;SDS011;66490;51.484;0.026;2023-07-16T11:34:23;9.77;;;2.10;;
77417;SDS011;66490;51.484;0.026;2023-07-16T11:37:10;9.03;;;1.30;;
77417;SDS011;66490;51.484;0.026;2023-07-16T11:39:55;7.55;;;1.38;;
77417;SDS011;66490;51.484;0.026;2023-07-16T11:42:40;7.05;;;1.33;;
77417;SDS011;66490;51.484;0.026;2023-07-16T11:45:25;7.18;;;0.98;;
77417;SDS011;66490;51.484;0.026;2023-07-16T11:48:13;6.38;;;1.20;;
77417;SDS011;66490;51.484;0.026;2023-07-16T11:50:56;7.13;;;1.00;;
77417;SDS011;66490;51.484;0.026;2023-07-16T11:53:40;9.23;;;1.35;;
77417;SDS011;66490;51.484;0.026;2023-07-16T11:56:24;9.40;;;1.40;;
77417;SDS011;66490;51.484;0.026;2023-07-16T11:59:08;7.70;;;1.25;;
77417;SDS011;66490;51.484;0.026;2023-07-16T12:01:52;6.07;;;1.15;;
77417;SDS011;66490;51.484;0.026;2023-07-16T12:04:36;7.73;;;1.60;;
77417;SDS011;66490;51.484;0.026;2023-07-16T12:07:31;6.95;;;1.20;;
77417;SDS011;66490;51.484;0.026;2023-07-16T12:10:15;7.63;;;1.63;;
77417;SDS011;66490;51.484;0.026;2023-07-16T12:12:59;9.45;;;1.60;;
77417;SDS011;66490;51.484;0.026;2023-07-16T12:15:42;8.27;;;2.20;;
77417;SDS011;66490;51.484;0.026;2023-07-16T12:18:27;7.83;;;1.00;;
77417;SDS011;66490;51.484;0.026;2023-07-16T12:21:11;10.48;;;1.08;;
77417;SDS011;66490;51.484;0.026;2023-07-16T12:23:54;9.45;;;2.65;;
77417;SDS011;66490;51.484;0.026;2023-07-16T12:26:39;11.30;;;2.00;;
77417;SDS011;66490;51.484;0.026;2023-07-16T12:29:23;9.10;;;2.17;;
77417;SDS011;66490;51.484;0.026;2023-07-16T12:32:08;9.23;;;2.00;;
77417;SDS011;66490;51.484;0.026;2023-07-16T12:34:52;6.07;;;1.38;;
77417;SDS011;66490;51.484;0.026;2023-07-16T12:37:38;8.50;;;1.45;;
77417;SDS011;66490;51.484;0.026;2023-07-16T12:40:25;8.75;;;1.80;;
77417;SDS011;66490;51.484;0.026;2023-07-16T12:43:10;7.35;;;1.75;;
77417;SDS011;66490;51.484;0.026;2023-07-16T12:45:54;9.03;;;1.47;;
77417;SDS011;66490;51.484;0.026;2023-07-16T12:48:38;15.07;;;1.88;;
77417;SDS011;66490;51.484;0.026;2023-07-16T12:51:22;8.05;;;1.75;;
77417;SDS011;66490;51.484;0.026;2023-07-16T12:54:06;8.10;;;1.70;;
77417;SDS011;66490;51.484;0.026;2023-07-16T12:56:50;6.30;;;1.05;;
77417;SDS011;66490;51.484;0.026;2023-07-16T12:59:34;4.47;;;1.03;;
77417;SDS011;66490;51.484;0.026;2023-07-16T13:02:18;7.13;;;1.75;;
77417;SDS011;66490;51.484;0.026;2023-07-16T13:05:02;5.38;;;1.85;;
77417;SDS011;66490;51.484;0.026;2023-07-16T13:07:46;6.47;;;1.52;;
77417;SDS011;66490;51.484;0.026;2023-07-16T13:10:30;6.97;;;1.98;;
77417;SDS011;66490;51.484;0.026;2023-07-16T13:13:14;6.23;;;1.10;;
77417;SDS011;66490;51.484;0.026;2023-07-16T13:15:58;7.55;;;1.40;;
77417;SDS011;66490;51.484;0.026;2023-07-16T13:18:42;5.43;;;1.48;;
77417;SDS011;66490;51.484;0.026;2023-07-16T13:21:34;7.05;;;1.80;;
77417;SDS011;66490;51.484;0.026;2023-07-16T13:27:41;8.33;;;1.70;;
77417;SDS011;66490;51.484;0.026;2023-07-16T13:30:30;9.50;;;1.88;;
77417;SDS011;66490;51.484;0.026;2023-07-16T13:33:14;6.15;;;1.35;;
77417;SDS011;66490;51.484;0.026;2023-07-16T13:35:58;8.45;;;1.42;;
77417;SDS011;66490;51.484;0.026;2023-07-16T13:38:45;7.00;;;1.73;;
77417;SDS011;66490;51.484;0.026;2023-07-16T13:41:29;8.03;;;1.50;;
77417;SDS011;66490;51.484;0.026;2023-07-16T13:44:12;7.70;;;1.25;;
77417;SDS011;66490;51.484;0.026;2023-07-16T13:46:57;7.28;;;1.55;;
77417;SDS011;66490;51.484;0.026;2023-07-16T13:49:41;6.97;;;1.48;;
77417;SDS011;66490;51.484;0.026;2023-07-16T13:52:26;12.77;;;2.25;;
77417;SDS011;66490;51.484;0.026;2023-07-16T13:55:10;5.87;;;1.20;;
77417;SDS011;66490;51.484;0.026;2023-07-16T13:57:54;7.70;;;1.42;;
77417;SDS011;66490;51.484;0.026;2023-07-16T14:00:39;7.57;;;1.33;;
77417;SDS011;66490;51.484;0.026;2023-07-16T14:03:25;7.60;;;1.27;;
77417;SDS011;66490;51.484;0.026;2023-07-16T14:06:09;8.13;;;1.58;;
77417;SDS011;66490;51.484;0.026;2023-07-16T14:08:56;6.87;;;1.10;;
77417;SDS011;66490;51.484;0.026;2023-07-16T14:11:40;4.72;;;1.10;;
77417;SDS011;66490;51.484;0.026;2023-07-16T14:14:25;7.90;;;1.40;;
77417;SDS011;66490;51.484;0.026;2023-07-16T14:17:09;6.57;;;1.45;;
77417;SDS011;66490;51.484;0.026;2023-07-16T14:19:52;6.32;;;1.20;;
77417;SDS011;66490;51.484;0.026;2023-07-16T14:22:39;4.23;;;0.80;;
77417;SDS011;66490;51.484;0.026;2023-07-16T14:25:23;4.55;;;1.45;;
77417;SDS011;66490;51.484;0.026;2023-07-16T14:28:07;5.82;;;1.00;;
77417;SDS011;66490;51.484;0.026;2023-07-16T14:30:51;5.30;;;1.23;;
77417;SDS011;66490;51.484;0.026;2023-07-16T14:33:35;7.85;;;1.60;;
77417;SDS011;66490;51.484;0.026;2023-07-16T14:36:19;7.37;;;1.30;;
77417;SDS011;66490;51.484;0.026;2023-07-16T14:39:03;6.28;;;1.17;;
77417;SDS011;66490;51.484;0.026;2023-07-16T14:41:47;6.32;;;1.33;;
77417;SDS011;66490;51.484;0.026;2023-07-16T14:44:32;6.43;;;1.15;;
77417;SDS011;66490;51.484;0.026;2023-07-16T14:47:17;7.45;;;1.20;;
77417;SDS011;66490;51.484;0.026;2023-07-16T14:50:04;8.40;;;1.27;;
77417;SDS011;66490;51.484;0.026;2023-07-16T14:52:51;8.38;;;1.05;;
77417;SDS011;66490;51.484;0.026;2023-07-16T14:55:35;6.40;;;1.15;;
77417;SDS011;66490;51.484;0.026;2023-07-16T14:58:19;6.28;;;1.13;;
77417;SDS011;66490;51.484;0.026;2023-07-16T15:01:04;4.88;;;1.35;;
77417;SDS011;66490;51.484;0.026;2023-07-16T15:03:51;6.63;;;1.10;;
77417;SDS011;66490;51.484;0.026;2023-07-16T15:06:35;5.20;;;1.40;;
77417;SDS011;66490;51.484;0.026;2023-07-16T15:09:19;6.68;;;2.15;;
77417;SDS011;66490;51.484;0.026;2023-07-16T15:12:04;5.22;;;1.30;;
77417;SDS011;66490;51.484;0.026;2023-07-16T15:14:49;5.35;;;1.15;;
77417;SDS011;66490;51.484;0.026;2023-07-16T15:17:33;4.53;;;1.10;;
77417;SDS011;66490;51.484;0.026;2023-07-16T15:20:17;5.95;;;1.50;;
77417;SDS011;66490;51.484;0.026;2023-07-16T15:23:05;7.80;;;1.30;;
77417;SDS011;66490;51.484;0.026;2023-07-16T15:25:49;5.72;;;1.15;;
77417;SDS011;66490;51.484;0.026;2023-07-16T15:28:34;6.13;;;1.50;;
77417;SDS011;66490;51.484;0.026;2023-07-16T15:31:20;8.17;;;1.47;;
77417;SDS011;66490;51.484;0.026;2023-07-16T15:34:13;5.05;;;1.15;;
77417;SDS011;66490;51.484;0.026;2023-07-16T15:36:58;5.53;;;0.70;;
77417;SDS011;66490;51.484;0.026;2023-07-16T15:39:45;7.65;;;1.30;;
77417;SDS011;66490;51.484;0.026;2023-07-16T15:42:31;7.72;;;1.08;;
77417;SDS011;66490;51.484;0.026;2023-07-16T15:45:15;7.87;;;1.27;;
77417;SDS011;66490;51.484;0.026;2023-07-16T15:48:00;5.38;;;1.02;;
77417;SDS011;66490;51.484;0.026;2023-07-16T15:50:44;5.32;;;1.45;;
77417;SDS011;66490;51.484;0.026;2023-07-16T15:53:29;5.70;;;1.17;;
77417;SDS011;66490;51.484;0.026;2023-07-16T15:56:13;5.35;;;1.42;;
77417;SDS011;66490;51.484;0.026;2023-07-16T15:58:56;8.87;;;1.43;;
77417;SDS011;66490;51.484;0.026;2023-07-16T16:01:40;3.70;;;0.98;;
77417;SDS011;66490;51.484;0.026;2023-07-16T16:04:24;4.28;;;1.20;;
77417;SDS011;66490;51.484;0.026;2023-07-16T16:07:08;9.00;;;1.50;;
77417;SDS011;66490;51.484;0.026;2023-07-16T16:09:52;5.30;;;1.30;;
77417;SDS011;66490;51.484;0.026;2023-07-16T16:12:40;3.30;;;0.70;;
77417;SDS011;66490;51.484;0.026;2023-07-16T16:15:25;6.90;;;2.08;;
77417;SDS011;66490;51.484;0.026;2023-07-16T16:18:09;5.03;;;1.45;;
77417;SDS011;66490;51.484;0.026;2023-07-16T16:20:53;6.18;;;1.50;;
77417;SDS011;66490;51.484;0.026;2023-07-16T16:23:37;5.78;;;1.70;;
77417;SDS011;66490;51.484;0.026;2023-07-16T16:26:21;6.80;;;2.77;;
77417;SDS011;66490;51.484;0.026;2023-07-16T16:29:08;8.15;;;3.08;;
77417;SDS011;66490;51.484;0.026;2023-07-16T16:31:53;7.20;;;1.80;;
77417;SDS011;66490;51.484;0.026;2023-07-16T16:34:37;8.07;;;1.55;;
77417;SDS011;66490;51.484;0.026;2023-07-16T16:37:21;6.35;;;2.03;;
77417;SDS011;66490;51.484;0.026;2023-07-16T16:40:05;7.10;;;1.83;;
77417;SDS011;66490;51.484;0.026;2023-07-16T16:42:53;5.40;;;1.90;;